DK-0018 weather

Filskov Flyveplads
Filskov, Denmark

Public forecast

Using degrees Celsius for public forecast. Weather courtesy of forecast.io.

Closest aviation weather report (METAR) to Filskov Flyveplads

Closest report is Billund Airport, 5.7 nm (10.6 km) SE. Retrieved 2019/10/19 11:20 UTC (0 seconds ago):

EKBI 191120Z AUTO 18010KT 150V210 9999 OVC013/// 12/10 Q1003

Closest aviation forecast (TAF) to Filskov Flyveplads

Closest forecast is Billund Airport, 5.7 nm (10.6 km) SE. Retrieved 2019/10/19 06:31 UTC (5 hours ago):

TAF EKBI 190506Z 1906/2006 21012KT 9999 BKN018 TEMPO 1906/1909 4000 SHRA BKN012 SCT020CB TEMPO 1909/1918 BKN012 SCT020CB BECMG 1915/1918 15005KT TEMPO 1918/2006 2000 BR SCT020CB